createdAt,value
2022-12-28T00:03:50.097Z,50.77
2022-12-28T00:09:52.706Z,46.47
2022-12-28T00:12:30.483Z,49.03
2022-12-28T00:14:57.855Z,49.05
2022-12-28T00:17:25.473Z,55.13
2022-12-28T00:19:52.713Z,51.88
2022-12-28T00:22:25.953Z,49.22
2022-12-28T00:24:53.393Z,51.15
2022-12-28T00:27:20.593Z,45.72
2022-12-28T00:29:49.236Z,45.90
2022-12-28T00:32:39.348Z,45.42
2022-12-28T00:35:07.909Z,41.58
2022-12-28T00:37:40.977Z,40.30
2022-12-28T00:40:10.871Z,37.60
2022-12-28T00:43:02.682Z,39.03
2022-12-28T00:45:31.001Z,39.88
2022-12-28T00:47:58.481Z,34.38
2022-12-28T00:50:41.740Z,35.65
2022-12-28T00:53:49.561Z,35.67
2022-12-28T00:56:26.561Z,36.90
2022-12-28T00:58:58.651Z,35.15
2022-12-28T01:01:28.067Z,34.80
2022-12-28T01:03:57.332Z,32.28
2022-12-28T01:06:26.263Z,34.33
2022-12-28T01:12:03.285Z,33.17
2022-12-28T01:15:05.588Z,34.20
2022-12-28T01:17:33.281Z,34.90
2022-12-28T01:20:03.868Z,35.03
2022-12-28T01:22:31.195Z,33.55
2022-12-28T01:24:59.915Z,32.92
2022-12-28T01:27:29.109Z,33.10
2022-12-28T01:29:56.394Z,35.95
2022-12-28T01:32:23.785Z,33.92
2022-12-28T01:34:51.017Z,36.35
2022-12-28T01:37:18.416Z,36.60
2022-12-28T01:39:45.857Z,34.85
2022-12-28T01:42:19.056Z,37.40
2022-12-28T01:44:50.992Z,32.00
2022-12-28T01:47:27.045Z,35.90
2022-12-28T01:50:03.733Z,31.02
2022-12-28T01:52:50.220Z,34.28
2022-12-28T01:55:24.200Z,26.67
2022-12-28T01:57:58.889Z,27.98
2022-12-28T02:00:26.891Z,25.55
2022-12-28T02:02:59.353Z,28.48
2022-12-28T02:05:36.365Z,27.30
2022-12-28T02:08:35.877Z,26.98
2022-12-28T02:11:04.549Z,26.02
2022-12-28T02:16:43.583Z,23.75
2022-12-28T02:19:17.524Z,22.13
2022-12-28T02:22:22.231Z,20.42
2022-12-28T02:25:11.423Z,23.85
2022-12-28T02:28:08.530Z,25.33
2022-12-28T02:30:47.491Z,20.13
2022-12-28T02:33:32.628Z,19.50
2022-12-28T02:36:18.277Z,21.83
2022-12-28T02:39:38.265Z,21.83
2022-12-28T02:42:09.719Z,19.60
2022-12-28T02:44:58.952Z,19.35
2022-12-28T02:47:45.097Z,19.88
2022-12-28T02:50:15.883Z,20.77
2022-12-28T02:53:31.333Z,19.08
2022-12-28T02:56:27.910Z,19.88
2022-12-28T02:59:12.653Z,22.08
2022-12-28T03:01:50.728Z,21.08
2022-12-28T03:05:45.891Z,19.58
2022-12-28T03:08:21.513Z,17.27
2022-12-28T03:11:01.192Z,20.02
2022-12-28T03:13:45.263Z,19.80
2022-12-28T03:16:29.739Z,22.20
2022-12-28T03:19:27.690Z,20.92
2022-12-28T03:22:18.415Z,23.63
2022-12-28T03:25:04.736Z,21.00
2022-12-28T03:27:52.793Z,23.08
2022-12-28T03:30:44.024Z,24.58
2022-12-28T03:33:13.083Z,22.60
2022-12-28T03:35:57.912Z,19.67
2022-12-28T03:38:31.996Z,20.33
2022-12-28T03:41:43.576Z,18.92
2022-12-28T03:44:34.147Z,16.52
2022-12-28T03:47:12.867Z,17.45
2022-12-28T03:49:41.183Z,16.80
2022-12-28T03:52:14.407Z,17.25
2022-12-28T03:54:41.934Z,16.45
2022-12-28T03:57:12.234Z,17.52
2022-12-28T03:59:43.973Z,17.15
2022-12-28T04:02:11.400Z,14.77
2022-12-28T04:04:40.119Z,15.65
2022-12-28T04:07:07.723Z,14.75
2022-12-28T04:09:35.547Z,13.38
2022-12-28T04:12:03.877Z,14.82
2022-12-28T04:14:56.660Z,13.40
2022-12-28T04:17:23.964Z,14.93
2022-12-28T04:19:51.226Z,16.77
2022-12-28T04:22:20.196Z,16.55
2022-12-28T04:24:47.538Z,14.85
2022-12-28T04:27:14.793Z,16.35
2022-12-28T04:29:44.907Z,18.30
2022-12-28T04:32:18.888Z,15.70
2022-12-28T04:34:58.665Z,19.33
2022-12-28T04:37:31.119Z,18.00
2022-12-28T04:39:58.528Z,18.23
2022-12-28T04:45:34.879Z,21.43
2022-12-28T04:48:02.299Z,22.70
2022-12-28T04:53:38.313Z,20.90
2022-12-28T04:56:07.533Z,20.05
2022-12-28T04:58:35.588Z,25.67
2022-12-28T05:01:14.868Z,27.67
2022-12-28T05:03:46.029Z,30.73
2022-12-28T05:06:20.167Z,27.00
2022-12-28T05:08:48.326Z,26.30
2022-12-28T05:11:18.882Z,22.30
2022-12-28T05:13:46.663Z,24.63
2022-12-28T05:16:17.284Z,27.50
2022-12-28T05:18:45.192Z,27.13
2022-12-28T05:21:23.646Z,21.70
2022-12-28T05:23:51.790Z,21.88
2022-12-28T05:26:22.504Z,18.63
2022-12-28T05:28:52.307Z,20.58
2022-12-28T05:31:21.672Z,18.35
2022-12-28T05:33:52.132Z,19.52
2022-12-28T05:36:22.414Z,21.10
2022-12-28T05:38:50.197Z,21.10
2022-12-28T05:41:24.843Z,20.17
2022-12-28T05:43:53.800Z,21.20
2022-12-28T05:46:29.506Z,20.60
2022-12-28T05:49:01.051Z,21.83
2022-12-28T05:51:30.883Z,21.80
2022-12-28T05:54:01.464Z,21.92
2022-12-28T05:56:33.019Z,27.88
2022-12-28T05:59:05.674Z,24.95
2022-12-28T06:01:35.978Z,26.85
2022-12-28T06:04:14.926Z,27.58
2022-12-28T06:06:42.282Z,26.13
2022-12-28T06:09:09.822Z,22.73
2022-12-28T06:11:55.856Z,19.42
2022-12-28T06:14:23.137Z,18.90
2022-12-28T06:16:51.507Z,19.02
2022-12-28T06:19:18.834Z,18.75
2022-12-28T06:21:46.080Z,17.05
2022-12-28T06:24:18.176Z,17.30
2022-12-28T06:26:45.833Z,17.63
2022-12-28T06:29:13.130Z,19.10
2022-12-28T06:31:46.855Z,18.35
2022-12-28T06:37:23.885Z,20.85
2022-12-28T06:39:51.148Z,22.13
2022-12-28T06:42:18.517Z,21.08
2022-12-28T06:44:45.771Z,18.33
2022-12-28T06:47:15.047Z,16.90
2022-12-28T06:49:49.780Z,21.30
2022-12-28T06:52:17.028Z,17.67
2022-12-28T06:54:44.244Z,17.92
2022-12-28T06:57:14.744Z,14.38
2022-12-28T06:59:45.472Z,16.55
2022-12-28T07:02:12.856Z,13.63
2022-12-28T07:04:41.671Z,14.95
2022-12-28T07:07:09.441Z,12.38
2022-12-28T07:09:36.780Z,16.00
2022-12-28T07:12:06.545Z,14.35
2022-12-28T07:14:33.850Z,12.90
2022-12-28T07:17:01.327Z,12.90
2022-12-28T07:19:28.564Z,13.77
2022-12-28T07:21:55.759Z,11.57
2022-12-28T07:24:23.471Z,15.75
2022-12-28T07:26:50.822Z,14.07
2022-12-28T07:29:18.274Z,14.02
2022-12-28T07:31:46.089Z,14.98
2022-12-28T07:34:15.195Z,13.73
2022-12-28T07:36:42.611Z,15.10
2022-12-28T07:39:10.610Z,14.20
2022-12-28T07:41:45.192Z,13.25
2022-12-28T07:46:54.096Z,11.10
2022-12-28T07:49:24.549Z,12.43
2022-12-28T07:51:51.884Z,13.40
2022-12-28T07:54:19.128Z,11.40
2022-12-28T07:56:46.485Z,12.95
2022-12-28T07:59:13.801Z,11.48
2022-12-28T08:01:41.150Z,9.95
2022-12-28T08:04:37.509Z,12.25
2022-12-28T08:07:10.567Z,14.82
2022-12-28T08:09:37.812Z,13.85
2022-12-28T08:12:05.406Z,14.15
2022-12-28T08:14:33.140Z,14.35
2022-12-28T08:17:20.693Z,20.45
2022-12-28T08:21:27.205Z,16.20
2022-12-28T08:22:42.799Z,18.17
2022-12-28T08:25:57.656Z,17.25
2022-12-28T08:31:15.120Z,14.30
2022-12-28T08:33:44.413Z,17.02
2022-12-28T08:36:12.541Z,14.45
2022-12-28T08:38:41.299Z,13.82
2022-12-28T08:41:11.900Z,16.27
2022-12-28T08:43:40.758Z,13.13
2022-12-28T08:46:15.900Z,15.45
2022-12-28T08:48:47.321Z,14.98
2022-12-28T08:51:16.676Z,13.38
2022-12-28T08:53:44.685Z,14.05
2022-12-28T08:56:38.207Z,15.05
2022-12-28T08:59:06.140Z,16.58
2022-12-28T09:01:42.998Z,16.02
2022-12-28T09:04:18.682Z,18.48
2022-12-28T09:06:46.785Z,16.75
2022-12-28T09:09:16.494Z,17.33
2022-12-28T09:11:44.805Z,14.73
2022-12-28T09:14:22.111Z,16.70
2022-12-28T09:16:50.914Z,16.52
2022-12-28T09:19:18.487Z,15.80
2022-12-28T09:21:48.913Z,20.48
2022-12-28T09:24:16.338Z,16.13
2022-12-28T09:26:43.820Z,19.77
2022-12-28T09:29:13.782Z,18.55
2022-12-28T09:31:41.875Z,20.15
2022-12-28T09:37:02.844Z,17.40
2022-12-28T09:39:30.432Z,18.27
2022-12-28T09:45:15.468Z,18.92
2022-12-28T09:52:06.057Z,18.80
2022-12-28T09:54:35.592Z,18.02
2022-12-28T09:57:03.044Z,19.30
2022-12-28T09:59:36.594Z,16.90
2022-12-28T10:02:05.388Z,20.13
2022-12-28T10:04:32.766Z,18.58
2022-12-28T10:07:02.084Z,22.85
2022-12-28T10:09:33.280Z,24.70
2022-12-28T10:12:16.170Z,22.77
2022-12-28T10:14:46.598Z,22.17
2022-12-28T10:17:15.620Z,23.48
2022-12-28T10:19:49.179Z,22.98
2022-12-28T10:22:22.484Z,19.88
2022-12-28T10:25:08.720Z,20.40
2022-12-28T10:27:36.011Z,19.48
2022-12-28T10:30:14.441Z,19.55
2022-12-28T10:33:03.103Z,21.90
2022-12-28T10:35:41.774Z,22.60
2022-12-28T10:38:27.388Z,20.35
2022-12-28T10:41:05.960Z,20.80
2022-12-28T10:43:37.267Z,19.35
2022-12-28T10:46:13.318Z,21.73
2022-12-28T10:48:49.946Z,19.98
2022-12-28T10:51:22.017Z,21.42
2022-12-28T10:54:01.282Z,20.92
2022-12-28T10:56:33.527Z,21.15
2022-12-28T10:59:12.921Z,21.88
2022-12-28T11:01:45.559Z,24.17
2022-12-28T11:04:54.288Z,22.20
2022-12-28T11:07:32.139Z,25.35
2022-12-28T11:10:26.520Z,23.27
2022-12-28T11:13:08.519Z,24.40
2022-12-28T11:15:35.990Z,24.67
2022-12-28T11:18:15.569Z,24.35
2022-12-28T11:20:48.977Z,22.02
2022-12-28T11:23:20.384Z,25.38
2022-12-28T11:25:48.229Z,23.35
2022-12-28T11:28:22.647Z,22.33
2022-12-28T11:30:52.479Z,21.55
2022-12-28T11:34:04.450Z,23.55
2022-12-28T11:36:37.614Z,22.75
2022-12-28T11:39:53.925Z,20.80
2022-12-28T11:42:57.572Z,28.30
2022-12-28T11:45:52.983Z,24.80
2022-12-28T11:48:46.440Z,27.45
2022-12-28T11:55:00.276Z,22.98
2022-12-28T11:57:54.926Z,20.63
2022-12-28T12:00:23.948Z,24.33
2022-12-28T12:03:02.540Z,23.33
2022-12-28T12:05:54.581Z,22.30
2022-12-28T12:08:21.899Z,22.60
2022-12-28T12:11:32.560Z,23.10
2022-12-28T12:14:01.585Z,24.40
2022-12-28T12:16:58.832Z,23.25
2022-12-28T12:22:20.970Z,21.58
2022-12-28T12:24:58.267Z,20.98
2022-12-28T12:27:40.549Z,21.38
2022-12-28T12:30:21.117Z,21.70
2022-12-28T12:36:23.853Z,22.35
2022-12-28T12:39:03.373Z,21.45
2022-12-28T12:42:06.325Z,24.75
2022-12-28T12:44:59.640Z,24.35
2022-12-28T12:47:36.175Z,21.45
2022-12-28T12:50:33.913Z,19.17
2022-12-28T12:57:15.376Z,22.40
2022-12-28T13:00:22.085Z,22.42
2022-12-28T13:03:21.528Z,18.95
2022-12-28T13:06:15.530Z,18.15
2022-12-28T13:08:48.383Z,19.13
2022-12-28T13:11:20.046Z,17.67
2022-12-28T13:13:50.470Z,15.13
2022-12-28T13:16:23.949Z,18.42
2022-12-28T13:19:01.799Z,17.40
2022-12-28T13:24:54.803Z,19.23
2022-12-28T13:27:34.180Z,19.55
2022-12-28T13:30:19.137Z,19.02
2022-12-28T13:33:08.973Z,15.32
2022-12-28T13:35:36.836Z,14.65
2022-12-28T13:38:08.421Z,18.83
2022-12-28T13:40:52.907Z,15.38
2022-12-28T13:43:55.781Z,17.30
2022-12-28T13:46:24.089Z,17.30
2022-12-28T13:48:53.951Z,16.23
2022-12-28T13:51:24.637Z,17.90
2022-12-28T13:54:01.251Z,16.38
2022-12-28T13:56:31.266Z,14.98
2022-12-28T14:01:52.454Z,14.85
2022-12-28T14:04:52.254Z,15.07
2022-12-28T14:07:45.897Z,14.93
2022-12-28T14:10:16.952Z,14.38
2022-12-28T14:12:45.808Z,13.65
2022-12-28T14:15:16.768Z,16.02
2022-12-28T14:17:46.470Z,13.88
2022-12-28T14:20:14.606Z,15.32
2022-12-28T14:22:42.936Z,16.05
2022-12-28T14:25:16.425Z,14.02
2022-12-28T14:27:58.067Z,13.93
2022-12-28T14:30:26.934Z,14.13
2022-12-28T14:32:59.697Z,14.70
2022-12-28T14:35:28.510Z,15.25
2022-12-28T14:38:00.908Z,15.80
2022-12-28T14:40:37.539Z,15.05
2022-12-28T14:43:25.766Z,13.43
2022-12-28T14:46:06.691Z,12.68
2022-12-28T14:48:38.149Z,13.75
2022-12-28T14:51:24.615Z,16.08
2022-12-28T14:54:13.659Z,11.77
2022-12-28T14:56:41.439Z,18.40
2022-12-28T14:59:28.284Z,15.02
2022-12-28T15:01:56.012Z,16.35
2022-12-28T15:04:39.209Z,16.48
2022-12-28T15:07:08.792Z,19.55
2022-12-28T15:09:36.592Z,18.83
2022-12-28T15:12:22.865Z,19.02
2022-12-28T15:14:50.393Z,19.33
2022-12-28T15:17:18.218Z,19.92
2022-12-28T15:19:46.765Z,20.08
2022-12-28T15:22:14.277Z,19.80
2022-12-28T15:24:45.022Z,20.10
2022-12-28T15:27:14.900Z,19.38
2022-12-28T15:30:05.150Z,20.30
2022-12-28T15:32:32.224Z,20.33
2022-12-28T15:34:59.518Z,21.52
2022-12-28T15:37:26.844Z,21.88
2022-12-28T15:39:54.271Z,23.02
2022-12-28T15:42:21.781Z,23.80
2022-12-28T15:44:51.065Z,27.00
2022-12-28T15:47:18.516Z,27.90
2022-12-28T15:49:45.826Z,27.83
2022-12-28T15:52:13.344Z,27.88
2022-12-28T15:54:46.776Z,23.90
2022-12-28T15:57:15.675Z,24.88
2022-12-28T15:59:43.063Z,23.15
2022-12-28T16:02:14.268Z,28.00
2022-12-28T16:04:42.051Z,24.27
2022-12-28T16:07:09.694Z,25.45
2022-12-28T16:09:37.408Z,26.17
2022-12-28T16:12:05.067Z,23.50
2022-12-28T16:14:32.639Z,24.27
2022-12-28T16:17:00.200Z,26.33
2022-12-28T16:19:27.550Z,25.00
2022-12-28T16:21:54.883Z,27.45
2022-12-28T16:24:29.048Z,25.42
2022-12-28T16:26:56.337Z,30.38
2022-12-28T16:29:23.718Z,30.45
2022-12-28T16:31:52.432Z,36.70
2022-12-28T16:34:19.793Z,30.13
2022-12-28T16:36:47.557Z,32.47
2022-12-28T16:39:17.581Z,26.40
2022-12-28T16:41:45.002Z,27.13
2022-12-28T16:44:18.161Z,25.00
2022-12-28T16:46:46.217Z,26.70
2022-12-28T16:49:13.844Z,33.60
2022-12-28T16:51:47.809Z,34.33
2022-12-28T16:54:20.955Z,33.40
2022-12-28T16:56:50.882Z,35.78
2022-12-28T16:59:26.899Z,40.90
2022-12-28T17:01:56.335Z,41.65
2022-12-28T17:04:23.897Z,39.08
2022-12-28T17:06:52.414Z,36.20
2022-12-28T17:09:20.660Z,36.78
2022-12-28T17:11:49.669Z,38.28
2022-12-28T17:14:35.837Z,35.47
2022-12-28T17:17:06.368Z,32.22
2022-12-28T17:19:34.125Z,31.60
2022-12-28T17:22:01.567Z,30.23
2022-12-28T17:24:28.815Z,30.02
2022-12-28T17:26:57.458Z,33.58
2022-12-28T17:29:27.777Z,30.85
2022-12-28T17:31:55.301Z,29.98
2022-12-28T17:34:23.451Z,30.20
2022-12-28T17:36:50.701Z,25.95
2022-12-28T17:39:17.969Z,26.05
2022-12-28T17:41:45.214Z,30.95
2022-12-28T17:44:12.548Z,25.23
2022-12-28T17:46:42.720Z,27.00
2022-12-28T17:49:15.460Z,33.38
2022-12-28T17:51:44.485Z,36.92
2022-12-28T17:54:13.580Z,32.45
2022-12-28T17:56:42.478Z,36.60
2022-12-28T17:59:15.244Z,34.33
2022-12-28T18:01:43.117Z,32.63
2022-12-28T18:04:12.015Z,34.63
2022-12-28T18:06:39.670Z,33.15
2022-12-28T18:09:07.247Z,31.40
2022-12-28T18:11:34.619Z,30.25
2022-12-28T18:14:01.962Z,33.58
2022-12-28T18:16:32.490Z,30.83
2022-12-28T18:18:59.971Z,36.58
2022-12-28T18:21:27.336Z,33.50
2022-12-28T18:23:54.581Z,32.72
2022-12-28T18:26:26.234Z,27.77
2022-12-28T18:28:54.717Z,28.02
2022-12-28T18:31:41.742Z,31.20
2022-12-28T18:34:09.524Z,29.58
2022-12-28T18:36:36.939Z,35.38
2022-12-28T18:39:04.328Z,29.35
2022-12-28T18:41:34.228Z,32.00
2022-12-28T18:44:02.941Z,31.40
2022-12-28T18:46:30.895Z,31.63
2022-12-28T18:49:00.403Z,30.48
2022-12-28T18:51:27.951Z,30.88
2022-12-28T18:53:55.422Z,32.13
2022-12-28T18:56:24.145Z,33.80
2022-12-28T18:58:55.809Z,31.00
2022-12-28T19:02:04.577Z,28.45
2022-12-28T19:04:13.099Z,30.92
2022-12-28T19:06:41.459Z,31.73
2022-12-28T19:09:10.324Z,31.10
2022-12-28T19:11:38.628Z,30.27
2022-12-28T19:14:08.023Z,33.35
2022-12-28T19:16:35.330Z,40.42
2022-12-28T19:19:03.184Z,37.97
2022-12-28T19:21:33.483Z,39.97
2022-12-28T19:24:03.718Z,39.03
2022-12-28T19:26:33.011Z,37.78
2022-12-28T19:29:00.313Z,41.25
2022-12-28T19:31:28.308Z,38.03
2022-12-28T19:33:55.795Z,35.92
2022-12-28T19:36:23.100Z,36.95
2022-12-28T19:38:50.379Z,33.85
2022-12-28T19:41:17.653Z,30.50
2022-12-28T19:43:45.120Z,36.00
2022-12-28T19:46:21.056Z,33.97
2022-12-28T19:48:48.556Z,32.60
2022-12-28T19:51:15.889Z,33.70
2022-12-28T19:53:43.538Z,32.45
2022-12-28T19:56:16.900Z,29.33
2022-12-28T19:58:45.444Z,30.38
2022-12-28T20:01:17.216Z,29.35
2022-12-28T20:03:45.682Z,36.00
2022-12-28T20:06:18.515Z,32.88
2022-12-28T20:08:47.189Z,50.08
2022-12-28T20:11:14.804Z,37.80
2022-12-28T20:13:42.636Z,33.80
2022-12-28T20:16:10.439Z,34.55
2022-12-28T20:18:37.683Z,36.97
2022-12-28T20:21:19.121Z,32.05
2022-12-28T20:23:51.447Z,34.95
2022-12-28T20:26:20.111Z,35.50
2022-12-28T20:28:50.043Z,33.75
2022-12-28T20:31:17.450Z,33.17
2022-12-28T20:33:45.354Z,35.03
2022-12-28T20:36:18.817Z,30.58
2022-12-28T20:38:47.202Z,30.95
2022-12-28T20:41:41.073Z,32.83
2022-12-28T20:44:11.541Z,26.35
2022-12-28T20:46:39.166Z,30.92
2022-12-28T20:49:06.809Z,28.92
2022-12-28T20:51:34.654Z,28.45
2022-12-28T20:54:02.280Z,32.25
2022-12-28T20:56:30.185Z,28.25
2022-12-28T20:58:58.341Z,25.05
2022-12-28T21:01:25.871Z,29.27
2022-12-28T21:03:53.280Z,26.10
2022-12-28T21:06:20.646Z,26.88
2022-12-28T21:08:48.042Z,27.70
2022-12-28T21:11:15.337Z,26.85
2022-12-28T21:13:45.012Z,26.92
2022-12-28T21:16:13.948Z,31.40
2022-12-28T21:18:42.568Z,25.65
2022-12-28T21:21:19.076Z,28.38
2022-12-28T21:23:46.556Z,29.77
2022-12-28T21:26:18.814Z,26.60
2022-12-28T21:28:46.863Z,25.85
2022-12-28T21:31:14.517Z,28.85
2022-12-28T21:33:42.531Z,26.02
2022-12-28T21:36:21.876Z,24.40
2022-12-28T21:38:49.532Z,31.60
2022-12-28T21:41:40.865Z,33.17
2022-12-28T21:44:10.754Z,30.00
2022-12-28T21:46:38.584Z,31.40
2022-12-28T21:49:11.871Z,32.40
2022-12-28T21:51:40.645Z,29.45
2022-12-28T21:54:23.040Z,26.75
2022-12-28T21:56:53.327Z,27.33
2022-12-28T21:59:21.957Z,31.83
2022-12-28T22:02:08.428Z,26.75
2022-12-28T22:05:01.815Z,26.70
2022-12-28T22:07:30.167Z,25.98
2022-12-28T22:10:16.308Z,23.65
2022-12-28T22:12:43.620Z,27.13
2022-12-28T22:15:38.123Z,27.92
2022-12-28T22:18:10.939Z,26.88
2022-12-28T22:20:47.364Z,25.98
2022-12-28T22:23:15.516Z,25.35
2022-12-28T22:25:42.796Z,25.35
2022-12-28T22:28:10.049Z,30.52
2022-12-28T22:30:37.565Z,25.45
2022-12-28T22:33:07.034Z,26.05
2022-12-28T22:35:34.381Z,28.25
2022-12-28T22:38:01.678Z,24.10
2022-12-28T22:40:29.174Z,30.75
2022-12-28T22:42:56.475Z,27.50
2022-12-28T22:45:24.128Z,25.85
2022-12-28T22:47:59.271Z,24.80
2022-12-28T22:50:29.515Z,26.50
2022-12-28T22:52:59.135Z,25.33
2022-12-28T22:55:26.511Z,23.40
2022-12-28T22:58:20.301Z,24.45
2022-12-28T23:00:47.535Z,27.52
2022-12-28T23:03:15.056Z,27.50
2022-12-28T23:05:50.633Z,23.88
2022-12-28T23:08:18.025Z,25.20
2022-12-28T23:11:02.324Z,26.80
2022-12-28T23:13:33.270Z,23.98
2022-12-28T23:16:04.100Z,25.40
2022-12-28T23:18:55.838Z,23.58
2022-12-28T23:21:44.520Z,20.48
2022-12-28T23:24:34.786Z,24.67
2022-12-28T23:27:22.068Z,26.10
2022-12-28T23:29:50.461Z,23.38
2022-12-28T23:32:22.971Z,21.08
2022-12-28T23:34:59.405Z,20.42
2022-12-28T23:39:54.557Z,23.90
2022-12-28T23:42:22.299Z,25.23
2022-12-28T23:44:49.790Z,23.88
2022-12-28T23:47:17.338Z,24.30
2022-12-28T23:49:44.757Z,24.13
2022-12-28T23:52:12.444Z,26.13
2022-12-28T23:54:39.846Z,25.77
2022-12-28T23:57:09.494Z,24.25
2022-12-28T23:59:36.880Z,26.23
